This is the latest recevied weather packets stored in our database for station/object KR0L-13. If no packets are shown the sender has not sent any weather packets the latest 1 day(s).
| Time | Temp. | Humidity | Pressure | Rain* | Wind** | Luminosity | Snow |
|---|---|---|---|---|---|---|---|
| 1778004620 | 9.44° C | 81% | 1011.3 hPa | 0 mm | 4.47 m/s, 338° | - | - |
| 1778004021 | 9.44° C | 78% | 1011.4 hPa | 0 mm | 4.92 m/s, 338° | - | - |
| 1778003421 | 10° C | 78% | 1011.4 hPa | 0.25 mm | 5.36 m/s, 338° | - | - |
| 1778002820 | 10° C | 81% | 1011.3 hPa | 0.25 mm | 4.92 m/s, 0° | - | - |
| 1778002220 | 10° C | 84% | 1011.3 hPa | 0.25 mm | 4.47 m/s, 0° | - | - |
| 1778001620 | 9.44° C | 87% | 1011.4 hPa | 1.27 mm | 5.36 m/s, 0° | - | - |
| 1778001020 | 8.89° C | 91% | 1011.1 hPa | 2.29 mm | 4.47 m/s, 0° | - | - |
| 1778000420 | 8.33° C | 92% | 1011.8 hPa | 3.3 mm | 4.02 m/s, 0° | - | - |
| 1777999820 | 8.33° C | 90% | 1012 hPa | 3.81 mm | 5.36 m/s, 0° | - | - |
| 1777999220 | 8.33° C | 90% | 1012.1 hPa | 3.81 mm | 4.47 m/s, 0° | - | - |
| 1777998620 | 7.78° C | 90% | 1012.1 hPa | 3.81 mm | 4.02 m/s, 0° | - | - |
| 1777998020 | 7.78° C | 86% | 1012.1 hPa | 2.79 mm | 4.02 m/s, 0° | - | - |
| 1777997420 | 7.78° C | 82% | 1012 hPa | 1.78 mm | 6.26 m/s, 0° | - | - |
| 1777996820 | 8.89° C | 76% | 1012.3 hPa | 0.76 mm | 4.92 m/s, 338° | - | - |
| 1777996232 | 10.56° C | 65% | 1011.8 hPa | 0 mm | 6.26 m/s, 338° | - | - |
| 1777995620 | 11.11° C | 60% | 1011.3 hPa | 0 mm | 5.81 m/s, 0° | - | - |
| 1777995020 | 11.11° C | 60% | 1011 hPa | 0 mm | 6.26 m/s, 0° | - | - |
| 1777994420 | 11.11° C | 61% | 1010.8 hPa | 0 mm | 6.71 m/s, 338° | - | - |
| 1777993820 | 11.11° C | 63% | 1011 hPa | 0 mm | 6.26 m/s, 0° | - | - |
| 1777993220 | 11.11° C | 66% | 1010.9 hPa | 0 mm | 4.02 m/s, 0° | - | - |
| 1777992632 | 11.11° C | 66% | 1011 hPa | 0 mm | 2.68 m/s, 338° | - | - |
| 1777992020 | 10.56° C | 68% | 1011 hPa | 0 mm | 2.24 m/s, 338° | - | - |
| 1777991420 | 10.56° C | 67% | 1010.9 hPa | 0 mm | 4.92 m/s, 338° | - | - |
| 1777990820 | 10.56° C | 68% | 1010.8 hPa | 0 mm | 3.58 m/s, 338° | - | - |
| 1777990222 | 10.56° C | 68% | 1010.6 hPa | 0 mm | 2.68 m/s, 338° | - | - |
* Rain latest hour (hover to see other rain measurements)
** Current wind speed in m/s (hover to see current wind gust speed)